Hamaritha — PF2437 — position and weather

sailwx.info

Track history (hours):
 
Tides and Currents Weather Stations Pressure Air Temp Water Temp Dewpoint Dewpoint Depression Visibility Wind Speed Wind Dir Waves Ship Positions

Hamaritha

Last reported at 2017-May-24 21:00 UTC. Time now 2017-May-24 21:23 UTC.
Position N 52°23' E 005°03'.

Length 86 m.

Type: Ship. MMSI: 244700691.

Date/timePositionNaut miles runAvg speedWind from/ knotsBaromVisibWave heightAir tempDewpointWater temp
2017-May-24 21:00N 52°23' E 005°03'4 8.7
2017-May-24 20:30N 52°25' E 005°09'4 8.6
2017-May-24 20:00N 52°28' E 005°14'4 8.5
2017-May-24 19:30N 52°30' E 005°20'4 6.9
2017-May-24 18:56N 52°32' E 005°26'2 5.1
2017-May-24 18:30N 52°34' E 005°28'4 9.0
2017-May-24 18:00N 52°37' E 005°32'4 8.7
2017-May-24 17:30N 52°41' E 005°35'4 9.0
2017-May-24 17:00N 52°46' E 005°35'5 9.0
2017-May-24 16:30N 52°50' E 005°39'2 3.5
2017-May-24 16:00N 52°51' E 005°41'0 0.2
2017-May-24 15:30N 52°51' E 005°41'1 1.0
2017-May-24 15:00N 52°52' E 005°41'0 0.0
2017-May-24 14:30N 52°52' E 005°41'3 3.4
2017-May-24 13:30N 52°55' E 005°42'3 7.0
2017-May-24 13:00N 52°59' E 005°41'3 5.9
2017-May-24 12:31N 53°01' E 005°44'3 6.8
2017-May-24 12:00N 53°04' E 005°48'2 4.4
2017-May-24 11:30N 53°05' E 005°50'3 6.4
2017-May-24 11:00N 53°08' E 005°53'2 4.3
2017-May-24 10:30N 53°07' E 005°57'19 0.8
2017-May-23 11:57N 52°51' E 005°41'1 2.6
2017-May-23 11:30N 52°50' E 005°40'4 7.9
2017-May-23 11:00N 52°47' E 005°35'4 7.8
2017-May-23 10:30N 52°43' E 005°34'4 7.8
2017-May-23 10:00N 52°40' E 005°34'4 7.9
2017-May-23 09:30N 52°37' E 005°39'4 7.6
2017-May-23 09:00N 52°35' E 005°44'4 8.1
2017-May-23 08:30N 52°35' E 005°51'3 6.7
2017-May-23 08:00N 52°33' E 005°56'3 5.8
2017-May-23 07:30N 52°32' E 005°60'3 6.9
2017-May-23 07:00N 52°29' E 006°04'12 7.3
2017-May-23 05:19N 52°17' E 006°07'3 8.6
2017-May-23 05:00N 52°15' E 006°10'3 6.5
2017-May-23 04:30N 52°12' E 006°09'4 0.4
2017-May-22 18:48N 52°10' E 006°15'2 6.2
2017-May-22 18:30N 52°10' E 006°18'4 7.5
2017-May-22 18:00N 52°10' E 006°24'5 7.0
2017-May-22 17:15N 52°12' E 006°32'2 7.2
2017-May-22 17:00N 52°13' E 006°34'6 4.6
2017-May-22 15:41N 52°15' E 006°43'1 6.1
2017-May-22 15:29N 52°15' E 006°45'1 2.2
2017-May-22 15:00N 52°15' E 006°47'0 0.0
2017-May-22 13:59N 52°15' E 006°47'0 0.0
2017-May-22 13:30N 52°15' E 006°47'0 0.0
2017-May-22 12:59N 52°15' E 006°47'0 0.0
2017-May-22 12:30N 52°15' E 006°47'0 0.0
2017-May-22 12:00N 52°15' E 006°47'0 0.0
2017-May-22 11:29N 52°15' E 006°47'0 0.0
2017-May-22 11:00N 52°15' E 006°47'0 0.0
2017-May-22 10:29N 52°15' E 006°47'0 0.0
2017-May-22 10:00N 52°15' E 006°47'0 0.0
2017-May-22 09:30N 52°15' E 006°47'0 0.0
2017-May-22 08:59N 52°15' E 006°47'0 0.0
2017-May-22 08:30N 52°15' E 006°47'0 0.0
2017-May-22 07:59N 52°15' E 006°47'0 0.0
2017-May-22 07:30N 52°15' E 006°47'0 0.0
2017-May-22 07:00N 52°15' E 006°47'0 0.0
2017-May-22 06:29N 52°15' E 006°47'0 0.0
2017-May-22 06:00N 52°15' E 006°47'0 0.0
2017-May-22 05:30N 52°15' E 006°47'0 0.0
2017-May-22 05:01N 52°15' E 006°47'0 0.1
2017-May-22 04:30N 52°15' E 006°47'0 0.0
2017-May-22 03:59N 52°15' E 006°47'0 0.0
2017-May-22 03:30N 52°15' E 006°47'0 0.0
2017-May-22 03:00N 52°15' E 006°47'0 0.0
2017-May-22 02:29N 52°15' E 006°47'0 0.0
2017-May-22 02:00N 52°15' E 006°47'0 0.0
2017-May-22 01:29N 52°15' E 006°47'0 0.0
2017-May-22 01:00N 52°15' E 006°47'0 0.0
2017-May-22 00:30N 52°15' E 006°47'0 0.0
2017-May-21 23:59N 52°15' E 006°47'0 0.0
2017-May-21 23:30N 52°15' E 006°47'0 0.0
2017-May-21 23:00N 52°15' E 006°47'0 0.0
2017-May-21 22:29N 52°15' E 006°47'0 0.0
2017-May-21 22:00N 52°15' E 006°47'0 0.0
2017-May-21 21:29N 52°15' E 006°47'0 0.0
2017-May-21 21:00N 52°15' E 006°47'0 0.0
2017-May-21 20:30N 52°15' E 006°47'0 0.0
2017-May-21 19:59N 52°15' E 006°47'0 0.0
2017-May-21 19:30N 52°15' E 006°47'0 0.0
2017-May-21 19:00N 52°15' E 006°47'0 0.0
2017-May-21 18:29N 52°15' E 006°47'0 0.0
2017-May-21 18:00N 52°15' E 006°47'0 0.0
2017-May-21 17:29N 52°15' E 006°47'0 0.0
2017-May-21 17:00N 52°15' E 006°47'0 0.0
2017-May-21 16:30N 52°15' E 006°47'0 0.0
2017-May-21 15:59N 52°15' E 006°47'0 0.0
2017-May-21 15:30N 52°15' E 006°47'0 0.0
2017-May-21 14:59N 52°15' E 006°47'0 0.0
2017-May-21 14:00N 52°15' E 006°47'0 0.0
2017-May-21 13:29N 52°15' E 006°47'0 0.0
2017-May-21 13:00N 52°15' E 006°47'0 0.0
2017-May-21 12:30N 52°15' E 006°47'0 0.0
2017-May-21 12:01N 52°15' E 006°47'0 0.0
2017-May-21 11:30N 52°15' E 006°47'0 0.0
2017-May-21 10:59N 52°15' E 006°47'0 0.0
2017-May-21 10:30N 52°15' E 006°47'0 0.0
2017-May-21 10:00N 52°15' E 006°47'0 0.0
2017-May-21 09:29N 52°15' E 006°47'0 0.0
2017-May-21 09:00N 52°15' E 006°47'0 0.0
2017-May-21 08:29N 52°15' E 006°47'0 0.0
2017-May-21 08:00N 52°15' E 006°47'0 0.0
2017-May-21 07:30N 52°15' E 006°47'0 0.0
2017-May-21 06:59N 52°15' E 006°47'0 0.0
2017-May-21 06:30N 52°15' E 006°47'0 0.0
2017-May-21 06:00N 52°15' E 006°47'0 0.0
2017-May-21 05:31N 52°15' E 006°47'0 0.0
2017-May-21 05:00N 52°15' E 006°47'0 0.0
2017-May-21 04:29N 52°15' E 006°47'0 0.0
2017-May-21 04:00N 52°15' E 006°47'0 0.0
2017-May-21 03:30N 52°15' E 006°47'0 0.0
2017-May-21 02:59N 52°15' E 006°47'0 0.0
2017-May-21 02:30N 52°15' E 006°47'0 0.0
2017-May-21 01:59N 52°15' E 006°47'0 0.0
2017-May-21 01:30N 52°15' E 006°47'0 0.0
2017-May-21 01:00N 52°15' E 006°47'0 0.0
2017-May-21 00:29N 52°15' E 006°47'0 0.0
2017-May-21 00:00N 52°15' E 006°47'0 0.0
2017-May-20 23:30N 52°15' E 006°47'0 0.0
2017-May-20 23:01N 52°15' E 006°47'0 0.0
2017-May-20 22:30N 52°15' E 006°47'0 0.0
2017-May-20 21:59N 52°15' E 006°47'0 0.0
2017-May-20 21:30N 52°15' E 006°47'0 0.0
2017-May-20 21:00N 52°15' E 006°47'0 0.0
2017-May-20 20:29N 52°15' E 006°47'0 0.0
2017-May-20 20:00N 52°15' E 006°47'0 0.0
2017-May-20 19:29N 52°15' E 006°47'0 0.0
2017-May-20 19:00N 52°15' E 006°47'0 0.0
2017-May-20 18:30N 52°15' E 006°47'0 0.0
2017-May-20 17:59N 52°15' E 006°47'0 0.0
2017-May-20 17:30N 52°15' E 006°47'0 0.0
2017-May-20 16:59N 52°15' E 006°47'0 0.0
2017-May-20 16:30N 52°15' E 006°47'0 0.0
2017-May-20 16:00N 52°15' E 006°47'0 0.0
2017-May-20 15:29N 52°15' E 006°47'0 0.0
2017-May-20 15:00N 52°15' E 006°47'0 0.0
2017-May-20 14:29N 52°15' E 006°47'2 1.7
2017-May-20 13:30N 52°15' E 006°44'3 2.8
2017-May-20 12:33N 52°15' E 006°40'0 4.9
2017-May-20 12:29N 52°14' E 006°39'3 5.4
2017-May-20 12:00N 52°14' E 006°35'3 5.5
2017-May-20 11:25N 52°12' E 006°31'2 5.4
2017-May-20 10:58N 52°10' E 006°28'3 5.5
2017-May-20 10:29N 52°10' E 006°23'3 5.8
2017-May-20 10:00N 52°10' E 006°19'3 5.2
2017-May-20 09:27N 52°10' E 006°14'1 1.5
2017-May-20 08:35N 52°10' E 006°12'0 4.7
2017-May-20 08:30N 52°10' E 006°12'3 6.5
2017-May-20 08:00N 52°07' E 006°12'2 4.7
2017-May-20 07:30N 52°05' E 006°10'3 6.4
2017-May-20 07:00N 52°02' E 006°07'2 4.6
2017-May-20 06:30N 51°60' E 006°07'3 5.1
2017-May-20 06:00N 52°00' E 006°02'4 7.2
2017-May-20 05:30N 51°58' E 005°57'4 7.4
2017-May-20 05:00N 51°55' E 005°59'4 8.0
2017-May-20 04:31N 51°52' E 006°04'5 9.1
2017-May-20 04:00N 51°50' E 006°11'5 9.1
2017-May-20 03:30N 51°49' E 006°18'1 1.7
2017-May-20 03:00N 51°48' E 006°19'0 0.0
2017-May-20 02:30N 51°48' E 006°19'0 0.0
2017-May-20 02:00N 51°48' E 006°19'0 0.0
2017-May-20 01:30N 51°48' E 006°19'0 0.0
2017-May-20 01:00N 51°48' E 006°19'0 0.0
2017-May-20 00:30N 51°48' E 006°19'0 0.0
2017-May-20 00:00N 51°48' E 006°19'0 0.0
2017-May-19 23:30N 51°48' E 006°19'0 0.0
2017-May-19 23:00N 51°48' E 006°19'0 0.0
2017-May-19 22:30N 51°48' E 006°19'0 0.0
2017-May-19 22:00N 51°48' E 006°19'1 2.0
2017-May-19 21:30N 51°47' E 006°19'4 8.4
2017-May-19 21:00N 51°45' E 006°25'4 7.7
2017-May-19 20:30N 51°41' E 006°28'4 8.3
2017-May-19 20:00N 51°40' E 006°34'4 7.7
2017-May-19 19:30N 51°36' E 006°36'4 6.9
2017-May-19 18:59N 51°34' E 006°41'4 8.4
2017-May-19 18:30N 51°31' E 006°43'3 5.7
2017-May-19 18:00N 51°28' E 006°43'4 8.6
2017-May-19 17:30N 51°24' E 006°45'7 6.4
2017-May-19 16:24N 51°17' E 006°42'4 9.0
2017-May-19 16:00N 51°14' E 006°46'3 6.2
2017-May-19 15:31N 51°11' E 006°44'3 7.0
2017-May-19 15:01N 51°09' E 006°48'13 6.7
2017-May-19 13:03N 50°58' E 006°60'2 8.6
2017-May-19 12:46N 50°56' E 006°58'2 9.4
2017-May-19 12:30N 50°54' E 006°60'3 4.8
2017-May-19 11:56N 50°51' E 007°00'3 6.2
2017-May-19 11:30N 50°49' E 007°02'4 9.1
2017-May-19 11:01N 50°45' E 007°06'5 8.8
2017-May-19 10:29N 50°41' E 007°10'  
Track history (hours):
 
Tides and Currents Weather Stations Pressure Air Temp Water Temp Dewpoint Dewpoint Depression Visibility Wind Speed Wind Dir Waves Ship Positions

Hamaritha

Last reported at 2017-May-24 21:00 UTC. Time now 2017-May-24 21:23 UTC.
Position N 52°23' E 005°03'.

Length 86 m.

Type: Ship. MMSI: 244700691.

Date/timePositionNaut miles runAvg speedWind from/ knotsBaromVisibWave heightAir tempDewpointWater temp
2017-May-24 21:00N 52°23' E 005°03'4 8.7
2017-May-24 20:30N 52°25' E 005°09'4 8.6
2017-May-24 20:00N 52°28' E 005°14'4 8.5
2017-May-24 19:30N 52°30' E 005°20'4 6.9
2017-May-24 18:56N 52°32' E 005°26'2 5.1
2017-May-24 18:30N 52°34' E 005°28'4 9.0
2017-May-24 18:00N 52°37' E 005°32'4 8.7
2017-May-24 17:30N 52°41' E 005°35'4 9.0
2017-May-24 17:00N 52°46' E 005°35'5 9.0
2017-May-24 16:30N 52°50' E 005°39'2 3.5
2017-May-24 16:00N 52°51' E 005°41'0 0.2
2017-May-24 15:30N 52°51' E 005°41'1 1.0
2017-May-24 15:00N 52°52' E 005°41'0 0.0
2017-May-24 14:30N 52°52' E 005°41'3 3.4
2017-May-24 13:30N 52°55' E 005°42'3 7.0
2017-May-24 13:00N 52°59' E 005°41'3 5.9
2017-May-24 12:31N 53°01' E 005°44'3 6.8
2017-May-24 12:00N 53°04' E 005°48'2 4.4
2017-May-24 11:30N 53°05' E 005°50'3 6.4
2017-May-24 11:00N 53°08' E 005°53'2 4.3
2017-May-24 10:30N 53°07' E 005°57'19 0.8
2017-May-23 11:57N 52°51' E 005°41'1 2.6
2017-May-23 11:30N 52°50' E 005°40'4 7.9
2017-May-23 11:00N 52°47' E 005°35'4 7.8
2017-May-23 10:30N 52°43' E 005°34'4 7.8
2017-May-23 10:00N 52°40' E 005°34'4 7.9
2017-May-23 09:30N 52°37' E 005°39'4 7.6
2017-May-23 09:00N 52°35' E 005°44'4 8.1
2017-May-23 08:30N 52°35' E 005°51'3 6.7
2017-May-23 08:00N 52°33' E 005°56'3 5.8
2017-May-23 07:30N 52°32' E 005°60'3 6.9
2017-May-23 07:00N 52°29' E 006°04'12 7.3
2017-May-23 05:19N 52°17' E 006°07'3 8.6
2017-May-23 05:00N 52°15' E 006°10'3 6.5
2017-May-23 04:30N 52°12' E 006°09'4 0.4
2017-May-22 18:48N 52°10' E 006°15'2 6.2
2017-May-22 18:30N 52°10' E 006°18'4 7.5
2017-May-22 18:00N 52°10' E 006°24'5 7.0
2017-May-22 17:15N 52°12' E 006°32'2 7.2
2017-May-22 17:00N 52°13' E 006°34'6 4.6
2017-May-22 15:41N 52°15' E 006°43'1 6.1
2017-May-22 15:29N 52°15' E 006°45'1 2.2
2017-May-22 15:00N 52°15' E 006°47'0 0.0
2017-May-22 13:59N 52°15' E 006°47'0 0.0
2017-May-22 13:30N 52°15' E 006°47'0 0.0
2017-May-22 12:59N 52°15' E 006°47'0 0.0
2017-May-22 12:30N 52°15' E 006°47'0 0.0
2017-May-22 12:00N 52°15' E 006°47'0 0.0
2017-May-22 11:29N 52°15' E 006°47'0 0.0
2017-May-22 11:00N 52°15' E 006°47'0 0.0
2017-May-22 10:29N 52°15' E 006°47'0 0.0
2017-May-22 10:00N 52°15' E 006°47'0 0.0
2017-May-22 09:30N 52°15' E 006°47'0 0.0
2017-May-22 08:59N 52°15' E 006°47'0 0.0
2017-May-22 08:30N 52°15' E 006°47'0 0.0
2017-May-22 07:59N 52°15' E 006°47'0 0.0
2017-May-22 07:30N 52°15' E 006°47'0 0.0
2017-May-22 07:00N 52°15' E 006°47'0 0.0
2017-May-22 06:29N 52°15' E 006°47'0 0.0
2017-May-22 06:00N 52°15' E 006°47'0 0.0
2017-May-22 05:30N 52°15' E 006°47'0 0.0
2017-May-22 05:01N 52°15' E 006°47'0 0.1
2017-May-22 04:30N 52°15' E 006°47'0 0.0
2017-May-22 03:59N 52°15' E 006°47'0 0.0
2017-May-22 03:30N 52°15' E 006°47'0 0.0
2017-May-22 03:00N 52°15' E 006°47'0 0.0
2017-May-22 02:29N 52°15' E 006°47'0 0.0
2017-May-22 02:00N 52°15' E 006°47'0 0.0
2017-May-22 01:29N 52°15' E 006°47'0 0.0
2017-May-22 01:00N 52°15' E 006°47'0 0.0
2017-May-22 00:30N 52°15' E 006°47'0 0.0
2017-May-21 23:59N 52°15' E 006°47'0 0.0
2017-May-21 23:30N 52°15' E 006°47'0 0.0
2017-May-21 23:00N 52°15' E 006°47'0 0.0
2017-May-21 22:29N 52°15' E 006°47'0 0.0
2017-May-21 22:00N 52°15' E 006°47'0 0.0
2017-May-21 21:29N 52°15' E 006°47'0 0.0
2017-May-21 21:00N 52°15' E 006°47'0 0.0
2017-May-21 20:30N 52°15' E 006°47'0 0.0
2017-May-21 19:59N 52°15' E 006°47'0 0.0
2017-May-21 19:30N 52°15' E 006°47'0 0.0
2017-May-21 19:00N 52°15' E 006°47'0 0.0
2017-May-21 18:29N 52°15' E 006°47'0 0.0
2017-May-21 18:00N 52°15' E 006°47'0 0.0
2017-May-21 17:29N 52°15' E 006°47'0 0.0
2017-May-21 17:00N 52°15' E 006°47'0 0.0
2017-May-21 16:30N 52°15' E 006°47'0 0.0
2017-May-21 15:59N 52°15' E 006°47'0 0.0
2017-May-21 15:30N 52°15' E 006°47'0 0.0
2017-May-21 14:59N 52°15' E 006°47'0 0.0
2017-May-21 14:00N 52°15' E 006°47'0 0.0
2017-May-21 13:29N 52°15' E 006°47'0 0.0
2017-May-21 13:00N 52°15' E 006°47'0 0.0
2017-May-21 12:30N 52°15' E 006°47'0 0.0
2017-May-21 12:01N 52°15' E 006°47'0 0.0
2017-May-21 11:30N 52°15' E 006°47'0 0.0
2017-May-21 10:59N 52°15' E 006°47'0 0.0
2017-May-21 10:30N 52°15' E 006°47'0 0.0
2017-May-21 10:00N 52°15' E 006°47'0 0.0
2017-May-21 09:29N 52°15' E 006°47'0 0.0
2017-May-21 09:00N 52°15' E 006°47'0 0.0
2017-May-21 08:29N 52°15' E 006°47'0 0.0
2017-May-21 08:00N 52°15' E 006°47'0 0.0
2017-May-21 07:30N 52°15' E 006°47'0 0.0
2017-May-21 06:59N 52°15' E 006°47'0 0.0
2017-May-21 06:30N 52°15' E 006°47'0 0.0
2017-May-21 06:00N 52°15' E 006°47'0 0.0
2017-May-21 05:31N 52°15' E 006°47'0 0.0
2017-May-21 05:00N 52°15' E 006°47'0 0.0
2017-May-21 04:29N 52°15' E 006°47'0 0.0
2017-May-21 04:00N 52°15' E 006°47'0 0.0
2017-May-21 03:30N 52°15' E 006°47'0 0.0
2017-May-21 02:59N 52°15' E 006°47'0 0.0
2017-May-21 02:30N 52°15' E 006°47'0 0.0
2017-May-21 01:59N 52°15' E 006°47'0 0.0
2017-May-21 01:30N 52°15' E 006°47'0 0.0
2017-May-21 01:00N 52°15' E 006°47'0 0.0
2017-May-21 00:29N 52°15' E 006°47'0 0.0
2017-May-21 00:00N 52°15' E 006°47'0 0.0
2017-May-20 23:30N 52°15' E 006°47'0 0.0
2017-May-20 23:01N 52°15' E 006°47'0 0.0
2017-May-20 22:30N 52°15' E 006°47'0 0.0
2017-May-20 21:59N 52°15' E 006°47'0 0.0
2017-May-20 21:30N 52°15' E 006°47'0 0.0
2017-May-20 21:00N 52°15' E 006°47'0 0.0
2017-May-20 20:29N 52°15' E 006°47'0 0.0
2017-May-20 20:00N 52°15' E 006°47'0 0.0
2017-May-20 19:29N 52°15' E 006°47'0 0.0
2017-May-20 19:00N 52°15' E 006°47'0 0.0
2017-May-20 18:30N 52°15' E 006°47'0 0.0
2017-May-20 17:59N 52°15' E 006°47'0 0.0
2017-May-20 17:30N 52°15' E 006°47'0 0.0
2017-May-20 16:59N 52°15' E 006°47'0 0.0
2017-May-20 16:30N 52°15' E 006°47'0 0.0
2017-May-20 16:00N 52°15' E 006°47'0 0.0
2017-May-20 15:29N 52°15' E 006°47'0 0.0
2017-May-20 15:00N 52°15' E 006°47'0 0.0
2017-May-20 14:29N 52°15' E 006°47'2 1.7
2017-May-20 13:30N 52°15' E 006°44'3 2.8
2017-May-20 12:33N 52°15' E 006°40'0 4.9
2017-May-20 12:29N 52°14' E 006°39'3 5.4
2017-May-20 12:00N 52°14' E 006°35'3 5.5
2017-May-20 11:25N 52°12' E 006°31'2 5.4
2017-May-20 10:58N 52°10' E 006°28'3 5.5
2017-May-20 10:29N 52°10' E 006°23'3 5.8
2017-May-20 10:00N 52°10' E 006°19'3 5.2
2017-May-20 09:27N 52°10' E 006°14'1 1.5
2017-May-20 08:35N 52°10' E 006°12'0 4.7
2017-May-20 08:30N 52°10' E 006°12'3 6.5
2017-May-20 08:00N 52°07' E 006°12'2 4.7
2017-May-20 07:30N 52°05' E 006°10'3 6.4
2017-May-20 07:00N 52°02' E 006°07'2 4.6
2017-May-20 06:30N 51°60' E 006°07'3 5.1
2017-May-20 06:00N 52°00' E 006°02'4 7.2
2017-May-20 05:30N 51°58' E 005°57'4 7.4
2017-May-20 05:00N 51°55' E 005°59'4 8.0
2017-May-20 04:31N 51°52' E 006°04'5 9.1
2017-May-20 04:00N 51°50' E 006°11'5 9.1
2017-May-20 03:30N 51°49' E 006°18'1 1.7
2017-May-20 03:00N 51°48' E 006°19'0 0.0
2017-May-20 02:30N 51°48' E 006°19'0 0.0
2017-May-20 02:00N 51°48' E 006°19'0 0.0
2017-May-20 01:30N 51°48' E 006°19'0 0.0
2017-May-20 01:00N 51°48' E 006°19'0 0.0
2017-May-20 00:30N 51°48' E 006°19'0 0.0
2017-May-20 00:00N 51°48' E 006°19'0 0.0
2017-May-19 23:30N 51°48' E 006°19'0 0.0
2017-May-19 23:00N 51°48' E 006°19'0 0.0
2017-May-19 22:30N 51°48' E 006°19'0 0.0
2017-May-19 22:00N 51°48' E 006°19'1 2.0
2017-May-19 21:30N 51°47' E 006°19'4 8.4
2017-May-19 21:00N 51°45' E 006°25'4 7.7
2017-May-19 20:30N 51°41' E 006°28'4 8.3
2017-May-19 20:00N 51°40' E 006°34'4 7.7
2017-May-19 19:30N 51°36' E 006°36'4 6.9
2017-May-19 18:59N 51°34' E 006°41'4 8.4
2017-May-19 18:30N 51°31' E 006°43'3 5.7
2017-May-19 18:00N 51°28' E 006°43'4 8.6
2017-May-19 17:30N 51°24' E 006°45'7 6.4
2017-May-19 16:24N 51°17' E 006°42'4 9.0
2017-May-19 16:00N 51°14' E 006°46'3 6.2
2017-May-19 15:31N 51°11' E 006°44'3 7.0
2017-May-19 15:01N 51°09' E 006°48'13 6.7
2017-May-19 13:03N 50°58' E 006°60'2 8.6
2017-May-19 12:46N 50°56' E 006°58'2 9.4
2017-May-19 12:30N 50°54' E 006°60'3 4.8
2017-May-19 11:56N 50°51' E 007°00'3 6.2
2017-May-19 11:30N 50°49' E 007°02'4 9.1
2017-May-19 11:01N 50°45' E 007°06'5 8.8
2017-May-19 10:29N 50°41' E 007°10'  

Dump ship's entire track history